Topeka, KS

11:42 PM CST on December 17, 2014 (GMT -0600)
Capital City of Kansas | Change Station
CLOSE
Current Station
Personal Weather Station
Location: Topeka, KS
Elevation: 1066 ft
Nearby Weather Stations
Active Advisory: Winter Weather Advisory Active Notice: Public Information Statement

Elev 1066 ft 39.02 °N, 95.80 °W | Updated 7 hours ago

Snow
Snow
30 °F
Feels Like 30 °F
N
5
Wind Variable Wind from East
Gusts mph

Today
High -- | Low -- °F
--% Chance of Precip.
Yesterday
High -- | Low -- °F
Precip. -- in
7:36 AM 5:02 PM
Waning Crescent, 17% visible
Pressure 30.24 in
Visibility 0.8 miles
Clouds
Dew Point 27 °F
Humidity 88%
Rainfall -999.00 in
Snow Depth Not available.
UV 0.0 out of 12
Pollen .10 out of 12
Air Quality Not available.
Flu Activity Not available.
SPECI KFOE 180537Z AUTO 04003KT 3/4SM R31/5000VP6000FT -SN BR VV011 M02/M03 A3024 RMK AO2 P0005 T10171033

More Conditions Fewer Conditions

Pressure 30.24 in
Visibility 0.8 miles
Clouds
Dew Point 27 °F
Humidity 88%
Rainfall -999.00 in
Snow Depth Not available.
UV 0.0 out of 12
Pollen .10 out of 12
Air Quality Not available.
Flu Activity Not available.
SPECI KFOE 180537Z AUTO 04003KT 3/4SM R31/5000VP6000FT -SN BR VV011 M02/M03 A3024 RMK AO2 P0005 T10171033

More Conditions Fewer Conditions

10-Day Weather Forecast

Almanac

Astronomy

Dec. 17, 2014 Rise Set
Actual Time
Civil Twilight
Nautical Twilight
Astronomical Twilight
Moon
Length of Visible Light
Length of Day
Tomorrow will be .
, % of the Moon is Illuminated

Today's Extremes

State Highs State Lows

Community

WunderPhotos

Upload Photos

1,778,896 photos uploaded!

WunderBlogs® & News

Nearby

Air Quality

  Air Quality AQ Index Pollutant
Not available.

Snow Depth

Station Depth Elevation

Earthquake Activity

City Distance Mag. Time & Date
Minimum magnitude displayed is 2.5.

Coastal Water Temperatures

Place Temperature

Nearby Weather Stations